createdAt,value
2023-01-25T00:01:08.470Z,44.17
2023-01-25T00:03:37.213Z,38.10
2023-01-25T00:06:08.274Z,48.07
2023-01-25T00:08:38.559Z,49.57
2023-01-25T00:11:07.228Z,47.03
2023-01-25T00:13:35.987Z,52.00
2023-01-25T00:16:06.181Z,41.13
2023-01-25T00:18:34.874Z,46.83
2023-01-25T00:21:16.209Z,41.77
2023-01-25T00:23:45.021Z,46.87
2023-01-25T00:26:14.276Z,41.20
2023-01-25T00:28:43.326Z,46.53
2023-01-25T00:31:22.400Z,46.77
2023-01-25T00:34:03.097Z,45.87
2023-01-25T00:36:43.410Z,45.80
2023-01-25T00:39:15.001Z,45.77
2023-01-25T00:41:44.571Z,42.17
2023-01-25T00:44:13.398Z,46.93
2023-01-25T00:46:42.103Z,40.67
2023-01-25T00:49:23.847Z,50.27
2023-01-25T00:51:55.978Z,46.77
2023-01-25T00:54:25.531Z,38.93
2023-01-25T00:56:56.487Z,45.80
2023-01-25T00:59:25.948Z,45.40
2023-01-25T01:01:57.243Z,37.23
2023-01-25T01:04:26.422Z,46.03
2023-01-25T01:06:57.514Z,48.73
2023-01-25T01:09:26.564Z,48.43
2023-01-25T01:11:55.958Z,47.43
2023-01-25T01:14:25.360Z,45.07
2023-01-25T01:16:55.398Z,46.70
2023-01-25T01:19:26.251Z,45.90
2023-01-25T01:21:56.485Z,48.30
2023-01-25T01:24:25.234Z,44.10
2023-01-25T01:26:53.899Z,44.17
2023-01-25T01:29:22.784Z,46.50
2023-01-25T01:31:52.695Z,52.07
2023-01-25T01:34:25.394Z,47.70
2023-01-25T01:36:56.319Z,54.07
2023-01-25T01:39:25.487Z,46.70
2023-01-25T01:41:54.261Z,48.90
2023-01-25T01:44:38.825Z,49.93
2023-01-25T01:47:17.251Z,51.57
2023-01-25T01:49:55.491Z,46.60
2023-01-25T01:52:34.679Z,49.17
2023-01-25T01:55:10.293Z,46.27
2023-01-25T01:57:47.387Z,47.90
2023-01-25T02:00:22.129Z,51.27
2023-01-25T02:02:53.040Z,48.80
2023-01-25T02:05:32.520Z,46.63
2023-01-25T02:08:06.859Z,49.70
2023-01-25T02:10:38.193Z,49.03
2023-01-25T02:13:07.032Z,42.87
2023-01-25T02:15:43.138Z,42.70
2023-01-25T02:18:13.560Z,47.33
2023-01-25T02:20:45.342Z,44.43
2023-01-25T02:23:26.909Z,42.60
2023-01-25T02:25:59.006Z,37.23
2023-01-25T02:28:34.278Z,44.17
2023-01-25T02:31:03.242Z,40.77
2023-01-25T02:33:32.364Z,42.37
2023-01-25T02:36:20.487Z,42.27
2023-01-25T02:38:57.110Z,43.10
2023-01-25T02:41:34.577Z,40.43
2023-01-25T02:44:07.845Z,43.30
2023-01-25T02:46:40.034Z,39.90
2023-01-25T02:49:11.772Z,31.10
2023-01-25T02:51:43.881Z,38.43
2023-01-25T02:54:15.509Z,34.50
2023-01-25T02:56:45.721Z,36.33
2023-01-25T02:59:15.192Z,36.37
2023-01-25T03:01:48.869Z,30.13
2023-01-25T03:04:18.356Z,28.60
2023-01-25T03:06:47.083Z,28.23
2023-01-25T03:09:16.007Z,24.40
2023-01-25T03:11:49.786Z,26.47
2023-01-25T03:14:21.973Z,24.77
2023-01-25T03:16:51.478Z,26.50
2023-01-25T03:19:23.503Z,25.30
2023-01-25T03:21:52.259Z,26.90
2023-01-25T03:24:21.334Z,27.27
2023-01-25T03:27:09.074Z,25.80
2023-01-25T03:29:43.863Z,23.50
2023-01-25T03:32:18.110Z,25.13
2023-01-25T03:34:46.948Z,25.10
2023-01-25T03:37:16.420Z,26.00
2023-01-25T03:39:45.943Z,25.60
2023-01-25T03:42:16.281Z,28.13
2023-01-25T03:44:46.048Z,30.17
2023-01-25T03:47:15.046Z,27.67
2023-01-25T03:49:44.636Z,28.13
2023-01-25T03:52:13.613Z,26.43
2023-01-25T03:54:43.801Z,34.10
2023-01-25T03:57:13.105Z,28.67
2023-01-25T03:59:52.591Z,26.93
2023-01-25T04:02:21.974Z,29.37
2023-01-25T04:04:50.720Z,27.23
2023-01-25T04:07:21.350Z,28.07
2023-01-25T04:09:51.498Z,23.60
2023-01-25T04:12:20.820Z,26.30
2023-01-25T04:14:49.548Z,31.00
2023-01-25T04:17:24.857Z,27.53
2023-01-25T04:20:06.346Z,25.03
2023-01-25T04:22:39.207Z,27.87
2023-01-25T04:25:09.820Z,27.07
2023-01-25T04:27:44.657Z,25.90
2023-01-25T04:30:17.445Z,27.67
2023-01-25T04:32:49.151Z,28.97
2023-01-25T04:35:25.690Z,27.20
2023-01-25T04:37:56.284Z,28.23
2023-01-25T04:40:28.434Z,28.83
2023-01-25T04:42:58.266Z,28.83
2023-01-25T04:45:28.113Z,29.77
2023-01-25T04:48:30.127Z,29.97
2023-01-25T04:51:04.945Z,29.60
2023-01-25T04:53:35.693Z,33.30
2023-01-25T04:56:08.894Z,33.67
2023-01-25T04:58:50.453Z,31.43
2023-01-25T05:01:19.372Z,25.30
2023-01-25T05:03:53.887Z,28.10
2023-01-25T05:06:43.708Z,26.53
2023-01-25T05:09:17.545Z,27.33
2023-01-25T05:11:48.060Z,26.60
2023-01-25T05:14:28.365Z,29.77
2023-01-25T05:16:58.551Z,25.23
2023-01-25T05:19:29.022Z,23.87
2023-01-25T05:22:15.674Z,27.17
2023-01-25T05:24:55.351Z,29.87
2023-01-25T05:27:25.715Z,31.00
2023-01-25T05:30:03.583Z,28.53
2023-01-25T05:32:59.911Z,26.77
2023-01-25T05:35:35.789Z,24.77
2023-01-25T05:38:08.371Z,28.67
2023-01-25T05:40:37.886Z,24.97
2023-01-25T05:43:09.178Z,24.83
2023-01-25T05:45:40.638Z,24.07
2023-01-25T05:48:11.014Z,25.40
2023-01-25T05:50:41.523Z,28.67
2023-01-25T05:57:41.375Z,25.60
2023-01-25T06:00:12.988Z,28.30
2023-01-25T06:02:44.790Z,25.97
2023-01-25T06:05:43.868Z,25.97
2023-01-25T06:08:13.048Z,24.97
2023-01-25T06:10:53.429Z,25.90
2023-01-25T06:13:22.404Z,24.47
2023-01-25T06:15:54.683Z,25.47
2023-01-25T06:18:55.479Z,27.07
2023-01-25T06:21:27.869Z,26.00
2023-01-25T06:23:56.713Z,25.50
2023-01-25T06:26:25.461Z,26.63
2023-01-25T06:28:54.207Z,28.77
2023-01-25T06:31:22.967Z,29.17
2023-01-25T06:33:59.232Z,32.27
2023-01-25T06:36:30.766Z,26.30
2023-01-25T06:38:59.710Z,31.03
2023-01-25T06:41:28.665Z,28.70
2023-01-25T06:43:57.473Z,22.67
2023-01-25T06:46:26.328Z,23.53
2023-01-25T06:48:55.081Z,26.67
2023-01-25T06:51:23.866Z,21.97
2023-01-25T06:53:53.901Z,26.10
2023-01-25T06:56:24.073Z,34.00
2023-01-25T06:58:52.920Z,65.60
2023-01-25T07:01:27.228Z,128.10
2023-01-25T07:03:59.046Z,171.30
2023-01-25T07:06:34.084Z,70.60
2023-01-25T07:09:10.887Z,286.77
2023-01-25T07:11:39.605Z,105.57
2023-01-25T07:14:08.487Z,65.60
2023-01-25T07:16:38.682Z,269.50
2023-01-25T07:19:08.687Z,409.43
2023-01-25T07:21:37.534Z,629.83
2023-01-25T07:24:08.380Z,280.73
2023-01-25T07:26:37.099Z,112.43
2023-01-25T07:29:05.768Z,39.40
2023-01-25T07:31:34.493Z,169.27
2023-01-25T07:34:03.301Z,255.00
2023-01-25T07:36:32.437Z,579.30
2023-01-25T07:39:01.106Z,363.13
2023-01-25T07:41:32.532Z,249.97
2023-01-25T07:44:01.235Z,31.83
2023-01-25T07:46:35.901Z,22.43
2023-01-25T07:49:04.577Z,297.47
2023-01-25T07:51:33.278Z,195.20
2023-01-25T07:54:04.364Z,38.00
2023-01-25T07:56:37.882Z,28.80
2023-01-25T07:59:08.683Z,18.30
2023-01-25T08:01:38.301Z,24.70
2023-01-25T08:04:07.832Z,18.43
2023-01-25T08:06:39.903Z,32.43
2023-01-25T08:09:13.427Z,18.33
2023-01-25T08:11:43.977Z,27.43
2023-01-25T08:14:12.807Z,29.07
2023-01-25T08:16:41.626Z,23.80
2023-01-25T08:19:12.130Z,34.27
2023-01-25T08:21:41.052Z,31.87
2023-01-25T08:24:10.610Z,17.10
2023-01-25T08:26:39.333Z,16.23
2023-01-25T08:29:09.435Z,12.37
2023-01-25T08:31:41.532Z,12.83
2023-01-25T08:34:12.427Z,13.13
2023-01-25T08:36:41.228Z,13.63
2023-01-25T08:39:13.079Z,15.93
2023-01-25T08:41:42.748Z,13.53
2023-01-25T08:44:13.059Z,11.13
2023-01-25T08:46:41.752Z,9.83
2023-01-25T08:49:11.609Z,12.53
2023-01-25T08:51:40.415Z,11.37
2023-01-25T08:54:13.019Z,16.37
2023-01-25T08:56:43.825Z,44.10
2023-01-25T08:59:15.240Z,24.10
2023-01-25T09:01:43.999Z,57.70
2023-01-25T09:04:12.758Z,12.77
2023-01-25T09:06:41.716Z,11.13
2023-01-25T09:09:10.518Z,7.13
2023-01-25T09:11:40.381Z,8.27
2023-01-25T09:14:09.111Z,8.47
2023-01-25T09:16:39.251Z,9.03
2023-01-25T09:19:08.160Z,9.43
2023-01-25T09:21:37.302Z,8.07
2023-01-25T09:24:08.050Z,8.27
2023-01-25T09:26:39.909Z,9.10
2023-01-25T09:29:11.006Z,8.97
2023-01-25T09:31:43.926Z,10.50
2023-01-25T09:34:33.843Z,10.43
2023-01-25T09:37:02.544Z,11.23
2023-01-25T09:39:31.244Z,10.00
2023-01-25T09:42:46.783Z,10.37
2023-01-25T09:45:31.348Z,10.23
2023-01-25T09:48:17.430Z,9.47
2023-01-25T09:51:17.826Z,10.23
2023-01-25T09:53:51.564Z,12.00
2023-01-25T09:56:26.649Z,10.43
2023-01-25T09:59:01.603Z,10.70
2023-01-25T10:01:43.123Z,12.97
2023-01-25T10:04:19.830Z,12.30
2023-01-25T10:07:00.917Z,21.50
2023-01-25T10:09:41.008Z,12.07
2023-01-25T10:12:21.839Z,11.70
2023-01-25T10:14:51.614Z,9.60
2023-01-25T10:17:34.965Z,10.50
2023-01-25T10:20:27.864Z,10.67
2023-01-25T10:23:40.611Z,10.50
2023-01-25T10:26:23.421Z,10.77
2023-01-25T10:29:02.687Z,12.17
2023-01-25T10:31:40.453Z,15.77
2023-01-25T10:34:21.465Z,10.87
2023-01-25T10:36:58.146Z,13.40
2023-01-25T10:39:26.955Z,14.43
2023-01-25T10:42:01.659Z,10.80
2023-01-25T10:44:30.486Z,11.57
2023-01-25T10:47:08.035Z,15.63
2023-01-25T10:49:47.662Z,14.90
2023-01-25T10:52:20.797Z,12.33
2023-01-25T10:55:08.128Z,13.07
2023-01-25T10:57:38.013Z,14.97
2023-01-25T11:00:11.650Z,15.20
2023-01-25T11:02:47.231Z,14.60
2023-01-25T11:05:34.093Z,15.80
2023-01-25T11:08:25.468Z,14.47
2023-01-25T11:10:55.368Z,14.37
2023-01-25T11:13:27.703Z,12.43
2023-01-25T11:16:17.772Z,12.93
2023-01-25T11:18:54.098Z,15.10
2023-01-25T11:21:25.849Z,16.17
2023-01-25T11:24:19.109Z,16.53
2023-01-25T11:26:48.316Z,18.27
2023-01-25T11:29:19.825Z,16.00
2023-01-25T11:31:54.789Z,20.27
2023-01-25T11:34:29.414Z,18.60
2023-01-25T11:37:43.032Z,17.87
2023-01-25T11:40:23.674Z,18.43
2023-01-25T11:43:05.314Z,20.37
2023-01-25T11:46:18.703Z,19.30
2023-01-25T11:49:38.135Z,21.57
2023-01-25T11:52:26.372Z,18.93
2023-01-25T11:55:11.309Z,18.43
2023-01-25T11:57:58.000Z,20.00
2023-01-25T12:00:52.314Z,20.20
2023-01-25T12:04:22.296Z,20.57
2023-01-25T12:07:06.806Z,23.43
2023-01-25T12:10:19.370Z,20.67
2023-01-25T12:13:02.291Z,21.57
2023-01-25T12:16:07.336Z,17.67
2023-01-25T12:19:22.873Z,18.87
2023-01-25T12:22:22.208Z,21.27
2023-01-25T12:25:03.924Z,17.73
2023-01-25T12:27:55.611Z,19.53
2023-01-25T12:30:44.909Z,21.07
2023-01-25T12:33:20.951Z,21.97
2023-01-25T12:35:59.115Z,19.40
2023-01-25T12:38:36.494Z,17.67
2023-01-25T12:41:20.115Z,19.00
2023-01-25T12:43:56.732Z,17.63
2023-01-25T12:46:33.136Z,19.43
2023-01-25T12:49:12.844Z,19.40
2023-01-25T12:51:44.786Z,18.23
2023-01-25T12:54:24.105Z,16.73
2023-01-25T12:57:06.702Z,17.37
2023-01-25T12:59:53.680Z,16.63
2023-01-25T13:03:00.181Z,17.77
2023-01-25T13:05:40.705Z,17.77
2023-01-25T13:08:32.175Z,19.60
2023-01-25T13:11:22.203Z,19.67
2023-01-25T13:13:57.924Z,22.10
2023-01-25T13:16:45.227Z,21.57
2023-01-25T13:19:22.808Z,21.00
2023-01-25T13:21:56.677Z,19.10
2023-01-25T13:24:27.028Z,18.73
2023-01-25T13:27:26.876Z,18.43
2023-01-25T13:30:03.754Z,21.93
2023-01-25T13:33:07.117Z,21.80
2023-01-25T13:35:45.898Z,24.47
2023-01-25T13:38:41.656Z,24.07
2023-01-25T13:41:18.651Z,26.23
2023-01-25T13:44:28.526Z,23.90
2023-01-25T13:47:01.525Z,22.07
2023-01-25T13:49:48.636Z,25.23
2023-01-25T13:52:58.257Z,26.97
2023-01-25T13:55:27.589Z,28.30
2023-01-25T13:58:11.974Z,30.07
2023-01-25T14:00:58.315Z,29.13
2023-01-25T14:03:32.004Z,29.00
2023-01-25T14:06:04.265Z,26.57
2023-01-25T14:08:38.483Z,25.77
2023-01-25T14:11:07.663Z,23.77
2023-01-25T14:13:36.645Z,21.13
2023-01-25T14:16:24.300Z,20.77
2023-01-25T14:18:53.131Z,18.80
2023-01-25T14:21:24.626Z,23.20
2023-01-25T14:23:53.607Z,23.77
2023-01-25T14:26:25.973Z,23.87
2023-01-25T14:29:01.772Z,23.70
2023-01-25T14:31:38.422Z,24.30
2023-01-25T14:34:08.643Z,30.20
2023-01-25T14:36:38.880Z,25.77
2023-01-25T14:39:21.862Z,23.73
2023-01-25T14:42:20.297Z,21.67
2023-01-25T14:44:49.448Z,24.27
2023-01-25T14:47:30.015Z,21.10
2023-01-25T14:50:33.177Z,20.97
2023-01-25T14:53:19.687Z,25.43
2023-01-25T14:55:50.689Z,23.23
2023-01-25T14:58:24.836Z,20.80
2023-01-25T15:00:58.831Z,25.10
2023-01-25T15:03:29.354Z,26.93
2023-01-25T15:06:04.111Z,28.67
2023-01-25T15:08:40.814Z,26.90
2023-01-25T15:11:38.720Z,27.60
2023-01-25T15:14:21.591Z,27.47
2023-01-25T15:16:50.715Z,29.90
2023-01-25T15:19:29.803Z,29.70
2023-01-25T15:22:01.502Z,31.90
2023-01-25T15:24:35.009Z,32.30
2023-01-25T15:27:27.547Z,35.80
2023-01-25T15:29:56.621Z,32.90
2023-01-25T15:32:25.403Z,32.43
2023-01-25T15:34:54.202Z,28.73
2023-01-25T15:37:22.889Z,29.50
2023-01-25T15:39:53.173Z,27.70
2023-01-25T15:42:21.863Z,32.37
2023-01-25T15:44:50.599Z,31.13
2023-01-25T15:47:19.333Z,31.20
2023-01-25T15:49:51.095Z,27.70
2023-01-25T15:52:20.606Z,31.03
2023-01-25T15:54:59.917Z,31.60
2023-01-25T15:57:38.258Z,26.70
2023-01-25T16:00:09.192Z,27.50
2023-01-25T16:02:38.275Z,26.07
2023-01-25T16:05:08.295Z,29.37
2023-01-25T16:07:40.517Z,25.50
2023-01-25T16:10:22.988Z,27.57
2023-01-25T16:12:53.249Z,29.23
2023-01-25T16:15:21.909Z,32.80
2023-01-25T16:17:50.639Z,26.60
2023-01-25T16:20:22.957Z,31.27
2023-01-25T16:22:53.187Z,28.63
2023-01-25T16:25:50.543Z,29.40
2023-01-25T16:28:21.887Z,27.37
2023-01-25T16:30:51.324Z,28.63
2023-01-25T16:33:24.281Z,29.17
2023-01-25T16:36:16.031Z,30.00
2023-01-25T16:38:48.358Z,30.33
2023-01-25T16:41:23.589Z,30.17
2023-01-25T16:43:53.719Z,26.70
2023-01-25T16:46:24.973Z,28.90
2023-01-25T16:48:54.396Z,30.93
2023-01-25T16:51:25.653Z,28.07
2023-01-25T16:53:59.383Z,28.50
2023-01-25T16:56:31.993Z,27.40
2023-01-25T16:59:06.739Z,30.37
2023-01-25T17:01:35.995Z,28.93
2023-01-25T17:04:06.255Z,31.43
2023-01-25T17:06:37.714Z,28.23
2023-01-25T17:09:21.510Z,33.67
2023-01-25T17:11:51.612Z,30.53
2023-01-25T17:14:23.219Z,32.27
2023-01-25T17:16:55.292Z,40.93
2023-01-25T17:19:25.149Z,35.10
2023-01-25T17:21:54.181Z,37.70
2023-01-25T17:24:23.403Z,35.13
2023-01-25T17:26:56.686Z,36.37
2023-01-25T17:29:27.114Z,41.53
2023-01-25T17:31:55.976Z,36.00
2023-01-25T17:34:26.505Z,37.40
2023-01-25T17:36:55.943Z,38.77
2023-01-25T17:39:25.280Z,36.43
2023-01-25T17:41:54.738Z,38.37
2023-01-25T17:44:26.531Z,36.87
2023-01-25T17:46:55.895Z,38.47
2023-01-25T17:49:26.433Z,40.90
2023-01-25T17:51:55.214Z,41.20
2023-01-25T17:54:23.947Z,33.23
2023-01-25T17:56:54.154Z,38.17
2023-01-25T17:59:23.022Z,35.17
2023-01-25T18:01:53.167Z,38.93
2023-01-25T18:04:21.891Z,33.83
2023-01-25T18:06:52.385Z,35.13
2023-01-25T18:09:21.225Z,35.27
2023-01-25T18:11:50.287Z,36.40
2023-01-25T18:14:19.076Z,41.13
2023-01-25T18:16:49.525Z,40.97
2023-01-25T18:19:23.737Z,42.63
2023-01-25T18:21:53.997Z,54.60
2023-01-25T18:24:33.488Z,44.27
2023-01-25T18:27:09.246Z,45.17
2023-01-25T18:29:50.704Z,47.43
2023-01-25T18:32:19.408Z,45.30
2023-01-25T18:34:49.486Z,44.20
2023-01-25T18:37:23.398Z,47.20
2023-01-25T18:39:54.937Z,43.17
2023-01-25T18:42:26.331Z,46.97
2023-01-25T18:44:55.333Z,44.40
2023-01-25T18:47:24.647Z,47.23
2023-01-25T18:49:55.044Z,45.07
2023-01-25T18:52:25.226Z,45.53
2023-01-25T18:54:54.008Z,48.90
2023-01-25T18:57:22.992Z,44.70
2023-01-25T18:59:52.120Z,44.07
2023-01-25T19:02:21.376Z,48.63
2023-01-25T19:04:50.415Z,45.97
2023-01-25T19:07:20.673Z,48.77
2023-01-25T19:09:49.525Z,51.40
2023-01-25T19:12:18.136Z,48.53
2023-01-25T19:14:49.353Z,47.80
2023-01-25T19:17:18.358Z,48.10
2023-01-25T19:19:49.259Z,44.80
2023-01-25T19:22:22.560Z,45.33
2023-01-25T19:24:51.461Z,45.73
2023-01-25T19:27:20.805Z,41.03
2023-01-25T19:29:50.732Z,44.67
2023-01-25T19:32:21.723Z,51.60
2023-01-25T19:34:55.310Z,50.70
2023-01-25T19:37:26.037Z,53.37
2023-01-25T19:39:55.542Z,46.13
2023-01-25T19:42:24.890Z,50.97
2023-01-25T19:44:54.735Z,46.57
2023-01-25T19:47:24.031Z,51.53
2023-01-25T19:49:55.416Z,49.33
2023-01-25T19:52:26.474Z,53.57
2023-01-25T19:54:56.205Z,47.87
2023-01-25T19:57:27.216Z,51.87
2023-01-25T19:59:57.283Z,51.80
2023-01-25T20:02:28.352Z,50.27
2023-01-25T20:05:02.554Z,52.53
2023-01-25T20:07:35.138Z,51.33
2023-01-25T20:10:05.716Z,54.60
2023-01-25T20:12:35.632Z,50.37
2023-01-25T20:15:06.238Z,45.50
2023-01-25T20:17:37.021Z,48.87
2023-01-25T20:20:08.113Z,49.37
2023-01-25T20:22:39.237Z,48.10
2023-01-25T20:25:09.834Z,49.23
2023-01-25T20:27:39.329Z,51.33
2023-01-25T20:30:10.376Z,44.07
2023-01-25T20:32:39.704Z,49.30
2023-01-25T20:35:10.263Z,52.77
2023-01-25T20:37:44.481Z,50.47
2023-01-25T20:40:14.679Z,53.57
2023-01-25T20:42:43.756Z,48.63
2023-01-25T20:45:17.126Z,51.30
2023-01-25T20:47:46.320Z,49.97
2023-01-25T20:50:15.371Z,50.40
2023-01-25T20:52:48.951Z,50.97
2023-01-25T20:55:18.192Z,51.23
2023-01-25T20:57:47.098Z,50.87
2023-01-25T21:00:17.893Z,52.23
2023-01-25T21:02:46.669Z,50.57
2023-01-25T21:05:15.573Z,51.60
2023-01-25T21:07:44.374Z,52.33
2023-01-25T21:10:14.836Z,58.10
2023-01-25T21:12:43.613Z,58.70
2023-01-25T21:15:17.593Z,62.53
2023-01-25T21:17:51.955Z,64.77
2023-01-25T21:20:21.226Z,66.83
2023-01-25T21:22:49.967Z,64.83
2023-01-25T21:25:20.285Z,65.53
2023-01-25T21:27:49.980Z,65.77
2023-01-25T21:30:22.994Z,61.67
2023-01-25T21:32:52.004Z,64.47
2023-01-25T21:35:20.738Z,61.33
2023-01-25T21:37:50.420Z,65.23
2023-01-25T21:40:20.976Z,59.17
2023-01-25T21:42:49.757Z,51.73
2023-01-25T21:45:36.535Z,58.47
2023-01-25T21:48:05.886Z,55.73
2023-01-25T21:50:51.997Z,62.57
2023-01-25T21:53:20.889Z,61.97
2023-01-25T21:55:57.336Z,63.90
2023-01-25T21:58:26.072Z,48.97
2023-01-25T22:00:54.876Z,60.13
2023-01-25T22:03:24.497Z,59.20
2023-01-25T22:05:55.997Z,54.43
2023-01-25T22:08:24.881Z,56.93
2023-01-25T22:11:01.950Z,53.37
2023-01-25T22:13:31.558Z,51.70
2023-01-25T22:16:01.940Z,44.43
2023-01-25T22:18:35.798Z,39.33
2023-01-25T22:21:07.326Z,45.03
2023-01-25T22:23:36.815Z,38.63
2023-01-25T22:26:10.168Z,31.37
2023-01-25T22:28:47.146Z,29.50
2023-01-25T22:31:17.581Z,28.07
2023-01-25T22:33:46.760Z,27.20
2023-01-25T22:36:19.262Z,21.70
2023-01-25T22:38:48.578Z,26.17
2023-01-25T22:41:20.890Z,24.90
2023-01-25T22:43:49.942Z,24.57
2023-01-25T22:46:21.495Z,25.83
2023-01-25T22:48:50.726Z,26.57
2023-01-25T22:51:24.502Z,31.50
2023-01-25T22:53:54.298Z,29.60
2023-01-25T22:56:26.871Z,27.60
2023-01-25T22:58:56.209Z,27.77
2023-01-25T23:01:27.830Z,28.73
2023-01-25T23:03:57.072Z,26.50
2023-01-25T23:06:28.672Z,26.63
2023-01-25T23:09:03.348Z,25.50
2023-01-25T23:11:37.441Z,26.90
2023-01-25T23:14:25.690Z,24.30
2023-01-25T23:17:14.687Z,28.30
2023-01-25T23:19:42.381Z,27.93
2023-01-25T23:22:11.061Z,30.53
2023-01-25T23:24:39.736Z,27.97
2023-01-25T23:27:09.841Z,31.20
2023-01-25T23:29:38.512Z,29.43
2023-01-25T23:32:07.660Z,31.33
2023-01-25T23:34:39.592Z,33.90
2023-01-25T23:37:08.777Z,28.87
2023-01-25T23:39:37.632Z,28.67
2023-01-25T23:42:06.690Z,28.40
2023-01-25T23:44:36.981Z,24.07
2023-01-25T23:47:05.821Z,26.70
2023-01-25T23:49:34.544Z,27.30
2023-01-25T23:52:03.246Z,26.13
2023-01-25T23:54:31.974Z,26.10
2023-01-25T23:57:00.667Z,27.23
2023-01-25T23:59:29.309Z,24.93
